Mundo Maya International Airport San Benito US
ICAO: MGTK
IATA: FRS
Category: Medium
Scheduled Services: Yes

Elevation: 427 ft
TransAlt. 0 ft.

Airport Communications:
TIKAL APP:121.4
TIKAL CLNC:120
GND:121.9
FLORES RDO:120
TIKAL TWR:118.3

MGTK Zoom In..

If you have problems with the map follow the link
https://www.worldairports.se/pages/airport.php?
ICAO=MGTK

Runways:

(A) RW 10 length 9843 ft width 148 ft
ILS 111.10 / hdg 108

(B) RW 28 length 9843 ft width 148 ft
---- / hdg 288

Location; MGTK
Day. 14 / Time. 01.00 Zulu
* Altimeter: 29.85
* Temperature: CB° c. 32°f.
* Wind from: 000° Speed 00 kn.
Dewpoint: LT° c.
Visibility: 10 km or more.
Clouds: Scattered 2000 ft.
Clouds: Few 2500 ft.
Clouds: Scattered 2000 ft.

MGTK 140100Z 00000KT 9999 SCT020 FEW025CB SCT200 25/24 Q1011 A2985 CB/LTNG NW CB/LTNG DIST SW


Wind - Calm.

 
 
jpsmedia worldairports.se 2019   terms of use